EST,Max TemperatureF,Mean TemperatureF,Min TemperatureF,Max Dew PointF,MeanDew PointF,Min DewpointF,Max Humidity, Mean Humidity, Min Humidity, Max Sea Level PressureIn, Mean Sea Level PressureIn, Min Sea Level PressureIn, Max VisibilityMiles, Mean VisibilityMiles, Min VisibilityMiles, Max Wind SpeedMPH, Mean Wind SpeedMPH, Max Gust SpeedMPH,PrecipitationIn, CloudCover, Events, WindDirDegrees
2012-12-1,59,46,33,41,35,30,89,74,41,30.43,30.38,30.35,10,8,4,9,1,,0.00,2,Fog,116
2012-12-2,63,49,35,47,41,33,93,72,55,30.42,30.33,30.25,10,9,5,10,4,,0.00,5,Fog,201
2012-12-3,71,60,50,54,50,46,93,74,49,30.28,30.25,30.21,10,10,8,13,7,,0.00,4,Rain,203
2012-12-4,73,62,50,55,52,48,97,71,41,30.31,30.23,30.15,10,9,6,14,5,22,0.00,2,Fog,211
2012-12-5,64,52,39,56,48,36,100,82,64,30.25,30.15,30.09,10,9,1,16,10,21,0.05,4,Fog-Rain,291
2012-12-6,46,40,35,35,31,26,89,70,58,30.36,30.30,30.25,10,10,10,16,10,,0.00,3,,22
2012-12-7,62,48,35,59,48,33,94,83,70,30.23,30.11,29.99,10,10,6,14,4,20,0.00,7,Rain,153
2012-12-8,63,58,53,61,55,50,97,89,70,30.04,29.97,29.93,10,8,0,13,8,,0.01,6,Fog-Rain,233
2012-12-9,68,60,51,59,54,49,94,85,70,30.15,30.09,30.02,10,8,3,9,6,,0.04,5,Rain,200
2012-12-10,71,67,63,64,62,57,94,84,70,29.99,29.80,29.69,10,9,2,22,9,28,0.03,7,Rain,198
2012-12-11,66,57,48,57,46,38,78,71,63,30.18,29.94,29.71,10,10,10,18,13,25,0.00,8,Rain,346
2012-12-12,50,48,46,38,36,33,73,66,59,30.35,30.29,30.18,10,10,10,20,15,26,0.01,8,Rain,28
2012-12-13,52,48,37,41,38,35,89,74,63,30.35,30.32,30.27,10,10,10,21,15,30,0.04,4,Rain,17
2012-12-14,54,44,33,38,34,30,96,75,45,30.35,30.30,30.25,10,10,9,7,3,,0.00,0,Fog,351
2012-12-15,54,43,32,48,38,29,93,83,62,30.31,30.22,30.12,10,9,7,7,1,,0.00,6,Fog,111
2012-12-16,57,54,51,55,52,46,100,93,82,30.10,30.01,29.89,10,6,0,12,4,,0.57,8,Fog-Rain,206
2012-12-17,64,60,57,57,55,53,96,89,73,29.89,29.78,29.57,10,8,2,24,7,30,0.25,8,Rain,203
2012-12-18,64,57,48,54,48,33,94,72,51,29.84,29.67,29.60,10,10,10,22,12,29,0.01,4,Rain,252
2012-12-19,61,49,37,38,34,31,79,61,35,30.18,29.98,29.84,10,10,10,18,8,26,0.00,1,,288
2012-12-20,59,48,37,55,41,32,87,72,63,30.21,30.02,29.58,10,10,5,21,10,29,0.05,6,Rain,103
2012-12-21,63,50,37,61,34,20,94,58,39,29.68,29.50,29.34,10,9,4,28,20,39,0.53,6,Rain,252
2012-12-22,48,42,36,24,21,19,55,46,31,30.05,29.88,29.69,10,10,10,24,15,38,0.00,2,,274
2012-12-23,51,40,30,26,22,15,69,47,24,30.14,30.05,29.99,10,10,10,13,5,,0.00,4,,224
2012-12-24,54,46,37,41,34,26,71,58,37,30.07,29.98,29.91,10,10,10,10,5,,0.00,7,Rain,187
2012-12-25,51,46,42,43,40,38,89,77,62,30.20,30.08,29.91,10,10,9,13,7,,0.00,3,,353
2012-12-26,63,54,45,59,49,38,100,86,73,30.17,29.74,29.37,10,7,1,23,15,30,2.33,8,Rain-Thunderstorm,91
2012-12-27,48,44,39,43,32,27,93,65,44,30.04,29.77,29.49,10,10,10,28,18,34,0.00,3,,281
2012-12-28,44,40,36,34,30,25,86,69,58,30.17,30.10,30.04,10,10,10,16,8,16,0.00,6,,335
2012-12-29,48,44,39,47,40,32,96,85,65,30.04,29.74,29.54,10,8,2,24,6,29,0.48,7,Rain,298
2012-12-30,45,36,28,32,23,18,75,56,35,30.36,30.15,29.83,10,10,10,26,12,43,0.00,1,,291
2012-12-31,46,36,25,28,24,20,88,60,35,30.35,30.24,30.09,10,10,9,13,5,,0.00,5,,229